sensor_id;sensor_type;location;lat;lon;timestamp;temperature;humidity
9049;DHT22;4559;47.252;9.592;2022-10-16T00:03:33;14.90;99.90
9049;DHT22;4559;47.252;9.592;2022-10-16T00:06:00;14.90;99.90
9049;DHT22;4559;47.252;9.592;2022-10-16T00:08:26;14.90;99.90
9049;DHT22;4559;47.252;9.592;2022-10-16T00:10:52;14.90;99.90
9049;DHT22;4559;47.252;9.592;2022-10-16T00:13:18;14.90;99.90
9049;DHT22;4559;47.252;9.592;2022-10-16T00:15:45;14.90;99.90
9049;DHT22;4559;47.252;9.592;2022-10-16T00:18:11;14.90;99.90
9049;DHT22;4559;47.252;9.592;2022-10-16T00:20:37;14.80;99.90
9049;DHT22;4559;47.252;9.592;2022-10-16T00:23:04;14.80;99.90
9049;DHT22;4559;47.252;9.592;2022-10-16T00:25:30;14.80;99.90
9049;DHT22;4559;47.252;9.592;2022-10-16T00:27:58;14.80;99.90
9049;DHT22;4559;47.252;9.592;2022-10-16T00:30:24;14.80;99.90
9049;DHT22;4559;47.252;9.592;2022-10-16T00:32:52;14.70;99.90
9049;DHT22;4559;47.252;9.592;2022-10-16T00:35:17;14.70;99.90
9049;DHT22;4559;47.252;9.592;2022-10-16T00:37:43;14.70;99.90
9049;DHT22;4559;47.252;9.592;2022-10-16T00:40:09;14.70;99.90
9049;DHT22;4559;47.252;9.592;2022-10-16T00:42:35;14.70;99.90
9049;DHT22;4559;47.252;9.592;2022-10-16T00:45:02;14.70;99.90
9049;DHT22;4559;47.252;9.592;2022-10-16T00:47:31;14.70;99.90
9049;DHT22;4559;47.252;9.592;2022-10-16T00:50:21;14.70;99.90
9049;DHT22;4559;47.252;9.592;2022-10-16T00:52:48;14.70;99.90
9049;DHT22;4559;47.252;9.592;2022-10-16T00:55:15;14.70;99.90
9049;DHT22;4559;47.252;9.592;2022-10-16T00:57:42;14.70;99.90
9049;DHT22;4559;47.252;9.592;2022-10-16T01:00:10;14.70;99.90
9049;DHT22;4559;47.252;9.592;2022-10-16T01:02:36;14.70;99.90
9049;DHT22;4559;47.252;9.592;2022-10-16T01:05:02;14.70;99.90
9049;DHT22;4559;47.252;9.592;2022-10-16T01:07:52;14.80;99.90
9049;DHT22;4559;47.252;9.592;2022-10-16T01:10:30;14.80;99.90
9049;DHT22;4559;47.252;9.592;2022-10-16T01:13:05;14.80;99.90
9049;DHT22;4559;47.252;9.592;2022-10-16T01:18:33;14.70;99.90
9049;DHT22;4559;47.252;9.592;2022-10-16T01:21:03;14.80;99.90
9049;DHT22;4559;47.252;9.592;2022-10-16T01:31:54;14.70;99.90
9049;DHT22;4559;47.252;9.592;2022-10-16T01:34:28;14.70;99.90
9049;DHT22;4559;47.252;9.592;2022-10-16T01:37:04;14.70;99.90
9049;DHT22;4559;47.252;9.592;2022-10-16T01:39:33;14.70;99.90
9049;DHT22;4559;47.252;9.592;2022-10-16T01:42:16;14.70;99.90
9049;DHT22;4559;47.252;9.592;2022-10-16T01:44:45;14.70;99.90
9049;DHT22;4559;47.252;9.592;2022-10-16T01:47:13;14.70;99.90
9049;DHT22;4559;47.252;9.592;2022-10-16T01:49:41;14.70;99.90
9049;DHT22;4559;47.252;9.592;2022-10-16T01:52:15;14.70;99.90
9049;DHT22;4559;47.252;9.592;2022-10-16T01:54:43;14.70;99.90
9049;DHT22;4559;47.252;9.592;2022-10-16T01:57:12;14.70;99.90
9049;DHT22;4559;47.252;9.592;2022-10-16T01:59:43;14.70;99.90
9049;DHT22;4559;47.252;9.592;2022-10-16T02:02:10;14.70;99.90
9049;DHT22;4559;47.252;9.592;2022-10-16T02:04:41;14.70;99.90
9049;DHT22;4559;47.252;9.592;2022-10-16T02:07:08;14.70;99.90
9049;DHT22;4559;47.252;9.592;2022-10-16T02:09:34;14.60;99.90
9049;DHT22;4559;47.252;9.592;2022-10-16T02:12:06;14.70;99.90
9049;DHT22;4559;47.252;9.592;2022-10-16T02:14:34;14.70;99.90
9049;DHT22;4559;47.252;9.592;2022-10-16T02:17:14;14.60;99.90
9049;DHT22;4559;47.252;9.592;2022-10-16T02:19:40;14.60;99.90
9049;DHT22;4559;47.252;9.592;2022-10-16T02:22:09;14.70;99.90
9049;DHT22;4559;47.252;9.592;2022-10-16T02:27:20;14.70;99.90
9049;DHT22;4559;47.252;9.592;2022-10-16T02:30:03;14.70;99.90
9049;DHT22;4559;47.252;9.592;2022-10-16T02:32:34;14.60;99.90
9049;DHT22;4559;47.252;9.592;2022-10-16T02:35:01;14.60;99.90
9049;DHT22;4559;47.252;9.592;2022-10-16T02:37:28;14.60;99.90
9049;DHT22;4559;47.252;9.592;2022-10-16T02:39:54;14.70;99.90
9049;DHT22;4559;47.252;9.592;2022-10-16T02:42:28;14.70;99.90
9049;DHT22;4559;47.252;9.592;2022-10-16T02:44:54;14.60;99.90
9049;DHT22;4559;47.252;9.592;2022-10-16T02:47:19;14.60;99.90
9049;DHT22;4559;47.252;9.592;2022-10-16T02:49:45;14.60;99.90
9049;DHT22;4559;47.252;9.592;2022-10-16T02:52:10;14.60;99.90
9049;DHT22;4559;47.252;9.592;2022-10-16T02:54:36;14.60;99.90
9049;DHT22;4559;47.252;9.592;2022-10-16T02:57:01;14.60;99.90
9049;DHT22;4559;47.252;9.592;2022-10-16T02:59:27;14.60;99.90
9049;DHT22;4559;47.252;9.592;2022-10-16T03:01:52;14.60;99.90
9049;DHT22;4559;47.252;9.592;2022-10-16T03:04:18;14.60;99.90
9049;DHT22;4559;47.252;9.592;2022-10-16T03:06:44;14.50;99.90
9049;DHT22;4559;47.252;9.592;2022-10-16T03:09:09;14.60;99.90
9049;DHT22;4559;47.252;9.592;2022-10-16T03:11:35;14.50;99.90
9049;DHT22;4559;47.252;9.592;2022-10-16T03:14:00;14.50;99.90
9049;DHT22;4559;47.252;9.592;2022-10-16T03:16:26;14.50;99.90
9049;DHT22;4559;47.252;9.592;2022-10-16T03:18:51;14.50;99.90
9049;DHT22;4559;47.252;9.592;2022-10-16T03:21:17;14.50;99.90
9049;DHT22;4559;47.252;9.592;2022-10-16T03:23:42;14.40;99.90
9049;DHT22;4559;47.252;9.592;2022-10-16T03:26:08;14.40;99.90
9049;DHT22;4559;47.252;9.592;2022-10-16T03:28:34;14.40;99.90
9049;DHT22;4559;47.252;9.592;2022-10-16T03:30:59;14.40;99.90
9049;DHT22;4559;47.252;9.592;2022-10-16T03:33:25;14.40;99.90
9049;DHT22;4559;47.252;9.592;2022-10-16T03:35:52;14.40;99.90
9049;DHT22;4559;47.252;9.592;2022-10-16T03:38:18;14.40;99.90
9049;DHT22;4559;47.252;9.592;2022-10-16T03:40:44;14.40;99.90
9049;DHT22;4559;47.252;9.592;2022-10-16T03:43:09;14.40;99.90
9049;DHT22;4559;47.252;9.592;2022-10-16T03:45:35;14.40;99.90
9049;DHT22;4559;47.252;9.592;2022-10-16T03:48:00;14.40;99.90
9049;DHT22;4559;47.252;9.592;2022-10-16T03:50:27;14.40;99.90
9049;DHT22;4559;47.252;9.592;2022-10-16T03:52:53;14.40;99.90
9049;DHT22;4559;47.252;9.592;2022-10-16T03:55:19;14.40;99.90
9049;DHT22;4559;47.252;9.592;2022-10-16T03:57:44;14.40;99.90
9049;DHT22;4559;47.252;9.592;2022-10-16T04:00:11;14.40;99.90
9049;DHT22;4559;47.252;9.592;2022-10-16T04:02:36;14.40;99.90
9049;DHT22;4559;47.252;9.592;2022-10-16T04:05:03;14.40;99.90
9049;DHT22;4559;47.252;9.592;2022-10-16T04:07:28;14.40;99.90
9049;DHT22;4559;47.252;9.592;2022-10-16T04:09:54;14.30;99.90
9049;DHT22;4559;47.252;9.592;2022-10-16T04:12:20;14.30;99.90
9049;DHT22;4559;47.252;9.592;2022-10-16T04:14:45;14.30;99.90
9049;DHT22;4559;47.252;9.592;2022-10-16T04:17:11;14.30;99.90
9049;DHT22;4559;47.252;9.592;2022-10-16T04:19:36;14.30;99.90
9049;DHT22;4559;47.252;9.592;2022-10-16T04:22:02;14.30;99.90
9049;DHT22;4559;47.252;9.592;2022-10-16T04:24:28;14.30;99.90
9049;DHT22;4559;47.252;9.592;2022-10-16T04:26:53;14.20;99.90
9049;DHT22;4559;47.252;9.592;2022-10-16T04:29:19;14.20;99.90
9049;DHT22;4559;47.252;9.592;2022-10-16T04:31:44;14.20;99.90
9049;DHT22;4559;47.252;9.592;2022-10-16T04:34:10;14.20;99.90
9049;DHT22;4559;47.252;9.592;2022-10-16T04:36:36;14.10;99.90
9049;DHT22;4559;47.252;9.592;2022-10-16T04:39:01;14.10;99.90
9049;DHT22;4559;47.252;9.592;2022-10-16T04:41:27;14.10;99.90
9049;DHT22;4559;47.252;9.592;2022-10-16T04:43:52;14.00;99.90
9049;DHT22;4559;47.252;9.592;2022-10-16T04:46:18;14.00;99.90
9049;DHT22;4559;47.252;9.592;2022-10-16T04:48:43;14.00;99.90
9049;DHT22;4559;47.252;9.592;2022-10-16T04:51:09;14.00;99.90
9049;DHT22;4559;47.252;9.592;2022-10-16T04:53:35;14.00;99.90
9049;DHT22;4559;47.252;9.592;2022-10-16T04:56:00;14.00;99.90
9049;DHT22;4559;47.252;9.592;2022-10-16T04:58:26;14.00;99.90
9049;DHT22;4559;47.252;9.592;2022-10-16T05:00:52;14.00;99.90
9049;DHT22;4559;47.252;9.592;2022-10-16T05:03:17;14.00;99.90
9049;DHT22;4559;47.252;9.592;2022-10-16T05:05:44;13.90;99.90
9049;DHT22;4559;47.252;9.592;2022-10-16T05:08:14;13.90;99.90
9049;DHT22;4559;47.252;9.592;2022-10-16T05:10:43;13.90;99.90
9049;DHT22;4559;47.252;9.592;2022-10-16T05:13:09;13.90;99.90
9049;DHT22;4559;47.252;9.592;2022-10-16T05:15:35;13.80;99.90
9049;DHT22;4559;47.252;9.592;2022-10-16T05:18:00;13.90;99.90
9049;DHT22;4559;47.252;9.592;2022-10-16T05:20:26;13.80;99.90
9049;DHT22;4559;47.252;9.592;2022-10-16T05:22:51;13.80;99.90
9049;DHT22;4559;47.252;9.592;2022-10-16T05:25:17;13.80;99.90
9049;DHT22;4559;47.252;9.592;2022-10-16T05:27:46;13.70;99.90
9049;DHT22;4559;47.252;9.592;2022-10-16T05:30:12;13.70;99.90
9049;DHT22;4559;47.252;9.592;2022-10-16T05:32:38;13.70;99.90
9049;DHT22;4559;47.252;9.592;2022-10-16T05:35:04;13.70;99.90
9049;DHT22;4559;47.252;9.592;2022-10-16T05:37:30;13.70;99.90
9049;DHT22;4559;47.252;9.592;2022-10-16T05:39:55;13.70;99.90
9049;DHT22;4559;47.252;9.592;2022-10-16T05:42:21;13.80;99.90
9049;DHT22;4559;47.252;9.592;2022-10-16T05:44:46;13.80;99.90
9049;DHT22;4559;47.252;9.592;2022-10-16T05:47:13;13.80;99.90
9049;DHT22;4559;47.252;9.592;2022-10-16T05:49:39;13.80;99.90
9049;DHT22;4559;47.252;9.592;2022-10-16T05:52:05;13.70;99.90
9049;DHT22;4559;47.252;9.592;2022-10-16T05:54:30;13.70;99.90
9049;DHT22;4559;47.252;9.592;2022-10-16T05:56:56;13.70;99.90
9049;DHT22;4559;47.252;9.592;2022-10-16T05:59:22;13.80;99.90
9049;DHT22;4559;47.252;9.592;2022-10-16T06:01:47;13.80;99.90
9049;DHT22;4559;47.252;9.592;2022-10-16T06:04:13;13.80;99.90
9049;DHT22;4559;47.252;9.592;2022-10-16T06:06:38;13.80;99.90
9049;DHT22;4559;47.252;9.592;2022-10-16T06:09:04;13.80;99.90
9049;DHT22;4559;47.252;9.592;2022-10-16T06:11:32;13.80;99.90
9049;DHT22;4559;47.252;9.592;2022-10-16T06:14:00;13.80;99.90
9049;DHT22;4559;47.252;9.592;2022-10-16T06:16:28;13.90;99.90
9049;DHT22;4559;47.252;9.592;2022-10-16T06:18:55;13.90;99.90
9049;DHT22;4559;47.252;9.592;2022-10-16T06:21:26;13.90;99.90
9049;DHT22;4559;47.252;9.592;2022-10-16T06:23:52;13.90;99.90
9049;DHT22;4559;47.252;9.592;2022-10-16T06:26:20;13.90;99.90
9049;DHT22;4559;47.252;9.592;2022-10-16T06:28:47;13.90;99.90
9049;DHT22;4559;47.252;9.592;2022-10-16T06:31:12;14.00;99.90
9049;DHT22;4559;47.252;9.592;2022-10-16T06:33:39;14.00;99.90
9049;DHT22;4559;47.252;9.592;2022-10-16T06:36:15;14.10;99.90
9049;DHT22;4559;47.252;9.592;2022-10-16T06:38:42;14.10;99.90
9049;DHT22;4559;47.252;9.592;2022-10-16T06:41:15;14.20;99.90
9049;DHT22;4559;47.252;9.592;2022-10-16T06:43:40;14.20;99.90
9049;DHT22;4559;47.252;9.592;2022-10-16T06:46:09;14.20;99.90
9049;DHT22;4559;47.252;9.592;2022-10-16T06:48:34;14.20;99.90
9049;DHT22;4559;47.252;9.592;2022-10-16T06:53:28;14.30;99.90
9049;DHT22;4559;47.252;9.592;2022-10-16T06:55:54;14.30;99.90
9049;DHT22;4559;47.252;9.592;2022-10-16T06:58:21;14.40;99.90
9049;DHT22;4559;47.252;9.592;2022-10-16T07:00:46;14.40;99.90
9049;DHT22;4559;47.252;9.592;2022-10-16T07:03:13;14.50;99.90
9049;DHT22;4559;47.252;9.592;2022-10-16T07:05:39;14.60;99.90
9049;DHT22;4559;47.252;9.592;2022-10-16T07:08:05;14.60;99.90
9049;DHT22;4559;47.252;9.592;2022-10-16T07:10:32;14.70;99.90
9049;DHT22;4559;47.252;9.592;2022-10-16T07:12:57;14.80;99.90
9049;DHT22;4559;47.252;9.592;2022-10-16T07:15:24;14.80;99.90
9049;DHT22;4559;47.252;9.592;2022-10-16T07:17:50;14.90;99.90
9049;DHT22;4559;47.252;9.592;2022-10-16T07:20:15;15.00;99.90
9049;DHT22;4559;47.252;9.592;2022-10-16T07:22:41;15.00;99.90
9049;DHT22;4559;47.252;9.592;2022-10-16T07:25:07;15.10;99.90
9049;DHT22;4559;47.252;9.592;2022-10-16T07:27:32;15.20;99.90
9049;DHT22;4559;47.252;9.592;2022-10-16T07:29:58;15.30;99.90
9049;DHT22;4559;47.252;9.592;2022-10-16T07:32:24;15.30;99.90
9049;DHT22;4559;47.252;9.592;2022-10-16T07:34:51;15.40;99.90
9049;DHT22;4559;47.252;9.592;2022-10-16T07:37:17;15.50;99.90
9049;DHT22;4559;47.252;9.592;2022-10-16T07:39:42;15.60;99.90
9049;DHT22;4559;47.252;9.592;2022-10-16T07:42:08;15.70;99.90
9049;DHT22;4559;47.252;9.592;2022-10-16T07:44:34;15.90;99.90
9049;DHT22;4559;47.252;9.592;2022-10-16T07:46:59;16.00;99.90
9049;DHT22;4559;47.252;9.592;2022-10-16T07:49:25;16.20;99.90
9049;DHT22;4559;47.252;9.592;2022-10-16T07:51:51;16.40;99.90
9049;DHT22;4559;47.252;9.592;2022-10-16T07:54:16;16.60;99.90
9049;DHT22;4559;47.252;9.592;2022-10-16T07:56:42;16.80;99.90
9049;DHT22;4559;47.252;9.592;2022-10-16T07:59:08;17.00;99.90
9049;DHT22;4559;47.252;9.592;2022-10-16T08:01:33;17.10;99.90
9049;DHT22;4559;47.252;9.592;2022-10-16T08:03:59;17.20;99.90
9049;DHT22;4559;47.252;9.592;2022-10-16T08:06:25;17.40;99.90
9049;DHT22;4559;47.252;9.592;2022-10-16T08:08:50;17.50;99.90
9049;DHT22;4559;47.252;9.592;2022-10-16T08:11:16;17.60;99.90
9049;DHT22;4559;47.252;9.592;2022-10-16T08:13:42;17.70;99.90
9049;DHT22;4559;47.252;9.592;2022-10-16T08:16:08;17.70;99.90
9049;DHT22;4559;47.252;9.592;2022-10-16T08:18:35;17.80;99.90
9049;DHT22;4559;47.252;9.592;2022-10-16T08:21:02;17.90;99.90
9049;DHT22;4559;47.252;9.592;2022-10-16T08:23:28;18.10;99.90
9049;DHT22;4559;47.252;9.592;2022-10-16T08:25:55;18.30;99.90
9049;DHT22;4559;47.252;9.592;2022-10-16T08:28:21;18.50;99.90
9049;DHT22;4559;47.252;9.592;2022-10-16T08:30:47;18.60;99.90
9049;DHT22;4559;47.252;9.592;2022-10-16T08:33:13;18.80;99.90
9049;DHT22;4559;47.252;9.592;2022-10-16T08:35:39;18.90;99.90
9049;DHT22;4559;47.252;9.592;2022-10-16T08:38:05;19.10;99.90
9049;DHT22;4559;47.252;9.592;2022-10-16T08:40:32;19.30;99.90
9049;DHT22;4559;47.252;9.592;2022-10-16T08:45:39;19.60;99.90
9049;DHT22;4559;47.252;9.592;2022-10-16T08:50:37;19.80;99.90
9049;DHT22;4559;47.252;9.592;2022-10-16T08:53:04;20.00;99.90
9049;DHT22;4559;47.252;9.592;2022-10-16T08:55:46;20.20;99.90
9049;DHT22;4559;47.252;9.592;2022-10-16T08:58:19;20.30;99.90
9049;DHT22;4559;47.252;9.592;2022-10-16T09:00:52;20.50;99.90
9049;DHT22;4559;47.252;9.592;2022-10-16T09:11:52;21.20;99.90
9049;DHT22;4559;47.252;9.592;2022-10-16T09:22:38;22.20;99.90
9049;DHT22;4559;47.252;9.592;2022-10-16T09:25:13;22.50;99.90
9049;DHT22;4559;47.252;9.592;2022-10-16T09:27:40;22.80;99.90
9049;DHT22;4559;47.252;9.592;2022-10-16T09:30:17;23.20;99.90
9049;DHT22;4559;47.252;9.592;2022-10-16T09:32:45;23.60;99.90
9049;DHT22;4559;47.252;9.592;2022-10-16T09:35:21;24.10;99.90
9049;DHT22;4559;47.252;9.592;2022-10-16T09:37:50;24.40;99.90
9049;DHT22;4559;47.252;9.592;2022-10-16T09:40:34;24.80;99.70
9049;DHT22;4559;47.252;9.592;2022-10-16T09:45:29;25.50;98.80
9049;DHT22;4559;47.252;9.592;2022-10-16T09:47:54;26.00;98.50
9049;DHT22;4559;47.252;9.592;2022-10-16T09:50:25;26.40;97.10
9049;DHT22;4559;47.252;9.592;2022-10-16T09:53:03;26.70;96.20
9049;DHT22;4559;47.252;9.592;2022-10-16T09:55:29;27.10;95.70
9049;DHT22;4559;47.252;9.592;2022-10-16T09:57:55;27.50;94.70
9049;DHT22;4559;47.252;9.592;2022-10-16T10:00:23;27.80;94.00
9049;DHT22;4559;47.252;9.592;2022-10-16T10:02:49;28.10;93.60
9049;DHT22;4559;47.252;9.592;2022-10-16T10:05:24;28.40;92.70
9049;DHT22;4559;47.252;9.592;2022-10-16T10:08:13;28.90;91.90
9049;DHT22;4559;47.252;9.592;2022-10-16T10:10:42;29.40;90.30
9049;DHT22;4559;47.252;9.592;2022-10-16T10:13:22;29.70;86.60
9049;DHT22;4559;47.252;9.592;2022-10-16T10:15:48;30.30;84.70
9049;DHT22;4559;47.252;9.592;2022-10-16T10:18:21;30.80;82.50
9049;DHT22;4559;47.252;9.592;2022-10-16T10:21:00;31.20;82.40
9049;DHT22;4559;47.252;9.592;2022-10-16T10:23:27;31.60;79.60
9049;DHT22;4559;47.252;9.592;2022-10-16T10:31:12;32.60;73.70
9049;DHT22;4559;47.252;9.592;2022-10-16T10:33:55;32.60;71.60
9049;DHT22;4559;47.252;9.592;2022-10-16T10:36:37;32.70;66.20
9049;DHT22;4559;47.252;9.592;2022-10-16T10:39:15;32.80;67.00
9049;DHT22;4559;47.252;9.592;2022-10-16T10:42:02;33.00;66.50
9049;DHT22;4559;47.252;9.592;2022-10-16T10:50:12;32.80;63.90
9049;DHT22;4559;47.252;9.592;2022-10-16T10:53:07;32.80;64.90
9049;DHT22;4559;47.252;9.592;2022-10-16T10:55:43;32.70;64.70
9049;DHT22;4559;47.252;9.592;2022-10-16T10:58:35;32.90;62.00
9049;DHT22;4559;47.252;9.592;2022-10-16T11:01:13;32.90;59.90
9049;DHT22;4559;47.252;9.592;2022-10-16T11:04:15;32.80;59.10
9049;DHT22;4559;47.252;9.592;2022-10-16T11:06:52;32.70;59.10
9049;DHT22;4559;47.252;9.592;2022-10-16T11:12:15;33.10;55.80
9049;DHT22;4559;47.252;9.592;2022-10-16T11:15:04;33.10;55.00
9049;DHT22;4559;47.252;9.592;2022-10-16T11:17:46;33.20;54.10
9049;DHT22;4559;47.252;9.592;2022-10-16T11:20:34;33.00;54.90
9049;DHT22;4559;47.252;9.592;2022-10-16T11:25:36;33.30;54.30
9049;DHT22;4559;47.252;9.592;2022-10-16T11:28:20;33.40;54.10
9049;DHT22;4559;47.252;9.592;2022-10-16T11:31:13;33.30;54.50
9049;DHT22;4559;47.252;9.592;2022-10-16T11:33:59;33.50;53.60
9049;DHT22;4559;47.252;9.592;2022-10-16T11:36:35;33.50;53.10
9049;DHT22;4559;47.252;9.592;2022-10-16T11:39:25;33.40;53.60
9049;DHT22;4559;47.252;9.592;2022-10-16T11:41:55;33.60;52.80
9049;DHT22;4559;47.252;9.592;2022-10-16T11:58:24;33.40;52.80
9049;DHT22;4559;47.252;9.592;2022-10-16T12:00:57;33.60;53.20
9049;DHT22;4559;47.252;9.592;2022-10-16T12:03:38;33.80;54.20
9049;DHT22;4559;47.252;9.592;2022-10-16T12:08:38;34.00;53.20
9049;DHT22;4559;47.252;9.592;2022-10-16T12:11:09;34.00;52.70
9049;DHT22;4559;47.252;9.592;2022-10-16T12:13:46;34.20;52.20
9049;DHT22;4559;47.252;9.592;2022-10-16T12:18:40;34.40;51.40
9049;DHT22;4559;47.252;9.592;2022-10-16T12:21:06;34.40;52.30
9049;DHT22;4559;47.252;9.592;2022-10-16T12:26:24;34.20;51.60
9049;DHT22;4559;47.252;9.592;2022-10-16T12:28:50;34.40;53.30
9049;DHT22;4559;47.252;9.592;2022-10-16T12:31:17;34.20;51.70
9049;DHT22;4559;47.252;9.592;2022-10-16T12:34:00;34.40;52.40
9049;DHT22;4559;47.252;9.592;2022-10-16T12:36:34;34.40;52.60
9049;DHT22;4559;47.252;9.592;2022-10-16T12:39:01;34.20;50.10
9049;DHT22;4559;47.252;9.592;2022-10-16T12:41:33;34.30;52.40
9049;DHT22;4559;47.252;9.592;2022-10-16T12:44:00;34.20;51.90
9049;DHT22;4559;47.252;9.592;2022-10-16T12:46:38;34.40;52.10
9049;DHT22;4559;47.252;9.592;2022-10-16T12:51:53;34.80;50.80
9049;DHT22;4559;47.252;9.592;2022-10-16T12:54:35;34.30;51.40
9049;DHT22;4559;47.252;9.592;2022-10-16T12:57:30;34.30;53.40
9049;DHT22;4559;47.252;9.592;2022-10-16T13:00:25;34.50;53.20
9049;DHT22;4559;47.252;9.592;2022-10-16T13:25:28;32.60;52.80
9049;DHT22;4559;47.252;9.592;2022-10-16T13:28:10;32.60;52.70
9049;DHT22;4559;47.252;9.592;2022-10-16T13:33:13;32.60;52.60
9049;DHT22;4559;47.252;9.592;2022-10-16T13:35:48;32.60;53.20
9049;DHT22;4559;47.252;9.592;2022-10-16T13:38:18;32.50;52.50
9049;DHT22;4559;47.252;9.592;2022-10-16T13:41:05;32.30;53.10
9049;DHT22;4559;47.252;9.592;2022-10-16T13:43:35;32.30;54.40
9049;DHT22;4559;47.252;9.592;2022-10-16T13:46:06;32.20;54.90
9049;DHT22;4559;47.252;9.592;2022-10-16T13:48:33;32.00;53.40
9049;DHT22;4559;47.252;9.592;2022-10-16T13:53:38;32.00;52.50
9049;DHT22;4559;47.252;9.592;2022-10-16T13:56:07;32.00;51.80
9049;DHT22;4559;47.252;9.592;2022-10-16T13:58:33;31.80;51.20
9049;DHT22;4559;47.252;9.592;2022-10-16T14:03:27;31.90;51.00
9049;DHT22;4559;47.252;9.592;2022-10-16T14:06:00;31.90;51.50
9049;DHT22;4559;47.252;9.592;2022-10-16T14:08:27;31.60;52.10
9049;DHT22;4559;47.252;9.592;2022-10-16T14:10:56;31.60;52.20
9049;DHT22;4559;47.252;9.592;2022-10-16T14:13:36;31.80;52.10
9049;DHT22;4559;47.252;9.592;2022-10-16T14:16:07;31.90;52.90
9049;DHT22;4559;47.252;9.592;2022-10-16T14:18:34;31.90;52.50
9049;DHT22;4559;47.252;9.592;2022-10-16T14:21:07;32.00;52.60
9049;DHT22;4559;47.252;9.592;2022-10-16T14:23:38;32.10;53.20
9049;DHT22;4559;47.252;9.592;2022-10-16T14:28:37;32.00;52.10
9049;DHT22;4559;47.252;9.592;2022-10-16T14:33:48;31.90;53.40
9049;DHT22;4559;47.252;9.592;2022-10-16T14:36:15;31.70;53.60
9049;DHT22;4559;47.252;9.592;2022-10-16T14:39:04;31.60;53.30
9049;DHT22;4559;47.252;9.592;2022-10-16T14:41:32;31.30;52.80
9049;DHT22;4559;47.252;9.592;2022-10-16T14:44:03;31.00;54.10
9049;DHT22;4559;47.252;9.592;2022-10-16T14:46:36;30.90;55.20
9049;DHT22;4559;47.252;9.592;2022-10-16T14:49:23;30.70;56.30
9049;DHT22;4559;47.252;9.592;2022-10-16T14:51:49;30.40;56.00
9049;DHT22;4559;47.252;9.592;2022-10-16T14:54:17;30.20;56.40
9049;DHT22;4559;47.252;9.592;2022-10-16T14:56:47;30.00;57.30
9049;DHT22;4559;47.252;9.592;2022-10-16T14:59:26;29.90;56.80
9049;DHT22;4559;47.252;9.592;2022-10-16T15:01:53;29.80;56.70
9049;DHT22;4559;47.252;9.592;2022-10-16T15:04:22;29.50;56.60
9049;DHT22;4559;47.252;9.592;2022-10-16T15:06:47;29.30;57.80
9049;DHT22;4559;47.252;9.592;2022-10-16T15:09:13;29.20;57.70
9049;DHT22;4559;47.252;9.592;2022-10-16T15:11:39;29.00;59.20
9049;DHT22;4559;47.252;9.592;2022-10-16T15:14:05;28.90;58.90
9049;DHT22;4559;47.252;9.592;2022-10-16T15:16:31;28.80;59.20
9049;DHT22;4559;47.252;9.592;2022-10-16T15:18:57;28.70;58.40
9049;DHT22;4559;47.252;9.592;2022-10-16T15:21:29;28.50;60.50
9049;DHT22;4559;47.252;9.592;2022-10-16T15:23:55;28.40;60.80
9049;DHT22;4559;47.252;9.592;2022-10-16T15:26:26;28.30;61.80
9049;DHT22;4559;47.252;9.592;2022-10-16T15:28:52;28.20;63.30
9049;DHT22;4559;47.252;9.592;2022-10-16T15:31:18;28.00;64.00
9049;DHT22;4559;47.252;9.592;2022-10-16T15:33:44;27.60;65.70
9049;DHT22;4559;47.252;9.592;2022-10-16T15:36:13;27.40;66.60
9049;DHT22;4559;47.252;9.592;2022-10-16T15:38:38;27.20;67.30
9049;DHT22;4559;47.252;9.592;2022-10-16T15:41:04;27.00;68.50
9049;DHT22;4559;47.252;9.592;2022-10-16T15:43:30;26.60;69.30
9049;DHT22;4559;47.252;9.592;2022-10-16T15:46:05;26.40;70.40
9049;DHT22;4559;47.252;9.592;2022-10-16T15:48:32;26.10;71.60
9049;DHT22;4559;47.252;9.592;2022-10-16T15:50:59;25.90;69.70
9049;DHT22;4559;47.252;9.592;2022-10-16T15:53:25;25.60;70.20
9049;DHT22;4559;47.252;9.592;2022-10-16T15:55:50;25.30;72.20
9049;DHT22;4559;47.252;9.592;2022-10-16T15:58:17;25.00;73.70
9049;DHT22;4559;47.252;9.592;2022-10-16T16:00:42;24.70;75.30
9049;DHT22;4559;47.252;9.592;2022-10-16T16:03:08;24.40;76.30
9049;DHT22;4559;47.252;9.592;2022-10-16T16:05:37;24.10;77.40
9049;DHT22;4559;47.252;9.592;2022-10-16T16:08:03;23.90;78.40
9049;DHT22;4559;47.252;9.592;2022-10-16T16:10:29;23.70;79.20
9049;DHT22;4559;47.252;9.592;2022-10-16T16:12:54;23.50;79.00
9049;DHT22;4559;47.252;9.592;2022-10-16T16:15:21;23.30;80.10
9049;DHT22;4559;47.252;9.592;2022-10-16T16:17:47;23.10;81.70
9049;DHT22;4559;47.252;9.592;2022-10-16T16:20:13;22.90;83.00
9049;DHT22;4559;47.252;9.592;2022-10-16T16:22:39;22.70;84.30
9049;DHT22;4559;47.252;9.592;2022-10-16T16:25:04;22.60;84.90
9049;DHT22;4559;47.252;9.592;2022-10-16T16:27:30;22.40;85.40
9049;DHT22;4559;47.252;9.592;2022-10-16T16:29:59;22.30;86.40
9049;DHT22;4559;47.252;9.592;2022-10-16T16:32:25;22.10;87.10
9049;DHT22;4559;47.252;9.592;2022-10-16T16:34:50;22.00;88.70
9049;DHT22;4559;47.252;9.592;2022-10-16T16:37:16;21.80;89.80
9049;DHT22;4559;47.252;9.592;2022-10-16T16:39:42;21.60;90.50
9049;DHT22;4559;47.252;9.592;2022-10-16T16:42:07;21.50;91.00
9049;DHT22;4559;47.252;9.592;2022-10-16T16:44:33;21.40;91.50
9049;DHT22;4559;47.252;9.592;2022-10-16T16:47:01;21.20;91.90
9049;DHT22;4559;47.252;9.592;2022-10-16T16:49:28;21.20;92.30
9049;DHT22;4559;47.252;9.592;2022-10-16T16:51:53;21.00;92.30
9049;DHT22;4559;47.252;9.592;2022-10-16T16:54:19;20.90;92.50
9049;DHT22;4559;47.252;9.592;2022-10-16T16:56:45;20.80;92.80
9049;DHT22;4559;47.252;9.592;2022-10-16T16:59:16;20.70;93.30
9049;DHT22;4559;47.252;9.592;2022-10-16T17:01:43;20.60;93.80
9049;DHT22;4559;47.252;9.592;2022-10-16T17:04:09;20.40;94.30
9049;DHT22;4559;47.252;9.592;2022-10-16T17:06:36;20.40;94.60
9049;DHT22;4559;47.252;9.592;2022-10-16T17:09:03;20.30;94.70
9049;DHT22;4559;47.252;9.592;2022-10-16T17:11:29;20.20;94.60
9049;DHT22;4559;47.252;9.592;2022-10-16T17:13:56;20.20;94.80
9049;DHT22;4559;47.252;9.592;2022-10-16T17:16:25;20.10;94.10
9049;DHT22;4559;47.252;9.592;2022-10-16T17:18:51;20.00;92.90
9049;DHT22;4559;47.252;9.592;2022-10-16T17:21:18;19.90;92.80
9049;DHT22;4559;47.252;9.592;2022-10-16T17:23:44;19.80;92.40
9049;DHT22;4559;47.252;9.592;2022-10-16T17:26:15;19.80;92.40
9049;DHT22;4559;47.252;9.592;2022-10-16T17:28:42;19.90;92.40
9049;DHT22;4559;47.252;9.592;2022-10-16T17:31:17;19.80;92.40
9049;DHT22;4559;47.252;9.592;2022-10-16T17:33:43;19.80;92.60
9049;DHT22;4559;47.252;9.592;2022-10-16T17:36:09;19.80;92.60
9049;DHT22;4559;47.252;9.592;2022-10-16T17:38:36;19.70;92.50
9049;DHT22;4559;47.252;9.592;2022-10-16T17:41:18;19.60;92.60
9049;DHT22;4559;47.252;9.592;2022-10-16T17:43:44;19.60;92.50
9049;DHT22;4559;47.252;9.592;2022-10-16T17:46:11;19.50;92.70
9049;DHT22;4559;47.252;9.592;2022-10-16T17:48:38;19.50;92.90
9049;DHT22;4559;47.252;9.592;2022-10-16T17:51:09;19.40;93.80
9049;DHT22;4559;47.252;9.592;2022-10-16T17:53:35;19.20;94.10
9049;DHT22;4559;47.252;9.592;2022-10-16T17:56:11;19.20;94.40
9049;DHT22;4559;47.252;9.592;2022-10-16T17:58:38;19.00;94.70
9049;DHT22;4559;47.252;9.592;2022-10-16T18:01:15;19.00;95.30
9049;DHT22;4559;47.252;9.592;2022-10-16T18:03:40;19.00;95.80
9049;DHT22;4559;47.252;9.592;2022-10-16T18:06:06;19.00;96.30
9049;DHT22;4559;47.252;9.592;2022-10-16T18:08:32;19.00;96.20
9049;DHT22;4559;47.252;9.592;2022-10-16T18:11:02;18.90;96.40
9049;DHT22;4559;47.252;9.592;2022-10-16T18:13:27;18.90;96.20